createdAt,value
2023-07-30T00:04:47.300Z,100740.44
2023-07-30T00:09:44.234Z,100741.50
2023-07-30T00:14:41.657Z,100749.06
2023-07-30T00:19:38.477Z,100739.66
2023-07-30T00:24:35.272Z,100735.66
2023-07-30T00:29:32.111Z,100720.19
2023-07-30T00:34:29.544Z,100677.09
2023-07-30T00:39:26.431Z,100707.75
2023-07-30T00:44:23.675Z,100677.75
2023-07-30T00:49:20.536Z,100724.56
2023-07-30T00:54:20.545Z,100703.25
2023-07-30T00:59:17.414Z,100724.09
2023-07-30T01:04:15.185Z,100712.59
2023-07-30T01:09:12.600Z,100699.81
2023-07-30T01:14:10.897Z,100717.16
2023-07-30T01:19:08.840Z,100679.66
2023-07-30T01:24:07.795Z,100681.19
2023-07-30T01:29:10.880Z,100718.59
2023-07-30T01:34:10.786Z,100665.78
2023-07-30T01:39:10.664Z,100690.31
2023-07-30T01:44:07.586Z,100684.28
2023-07-30T01:49:04.501Z,100690.03
2023-07-30T01:54:01.338Z,100709.53
2023-07-30T01:58:58.845Z,100708.06
2023-07-30T02:03:55.740Z,100716.03
2023-07-30T02:08:52.577Z,100706.13
2023-07-30T02:13:49.410Z,100722.47
2023-07-30T02:18:47.554Z,100695.16
2023-07-30T02:23:44.452Z,100671.88
2023-07-30T02:28:41.360Z,100725.56
2023-07-30T02:33:38.229Z,100673.03
2023-07-30T02:38:35.695Z,100707.44
2023-07-30T02:43:32.466Z,100677.75
2023-07-30T02:48:29.335Z,100732.94
2023-07-30T02:53:26.207Z,100738.50
2023-07-30T02:58:23.746Z,100741.94
2023-07-30T03:03:20.844Z,100757.59
2023-07-30T03:08:17.996Z,100763.28
2023-07-30T03:13:14.810Z,100715.00
2023-07-30T03:18:12.272Z,100757.06
2023-07-30T03:23:09.096Z,100764.78
2023-07-30T03:28:05.955Z,100762.81
2023-07-30T03:33:02.830Z,100772.91
2023-07-30T03:38:00.376Z,100778.09
2023-07-30T03:42:57.141Z,100764.84
2023-07-30T03:47:54.010Z,100784.53
2023-07-30T03:52:50.874Z,100791.94
2023-07-30T03:57:48.467Z,100745.91
2023-07-30T04:02:45.522Z,100776.94
2023-07-30T04:07:42.412Z,100785.34
2023-07-30T04:12:39.403Z,100786.97
2023-07-30T04:17:39.034Z,100767.41
2023-07-30T04:22:36.045Z,100790.88
2023-07-30T04:27:34.933Z,100802.53
2023-07-30T04:32:32.597Z,100794.63
2023-07-30T04:37:30.346Z,100791.66
2023-07-30T04:42:27.131Z,100808.19
2023-07-30T04:47:26.382Z,100806.03
2023-07-30T04:52:23.344Z,100803.41
2023-07-30T04:57:21.184Z,100806.50
2023-07-30T05:02:18.008Z,100786.50
2023-07-30T05:07:14.778Z,100818.59
2023-07-30T05:12:12.497Z,100786.50
2023-07-30T05:17:12.553Z,100807.09
2023-07-30T05:22:09.912Z,100819.19
2023-07-30T05:27:06.874Z,100826.47
2023-07-30T05:32:06.240Z,100793.00
2023-07-30T05:37:04.451Z,100777.69
2023-07-30T05:42:01.219Z,100819.13
2023-07-30T05:46:58.231Z,100834.28
2023-07-30T05:51:54.957Z,100825.19
2023-07-30T05:56:52.688Z,100826.09
2023-07-30T06:01:49.560Z,100812.16
2023-07-30T06:06:46.455Z,100831.59
2023-07-30T06:11:43.779Z,100821.31
2023-07-30T06:16:41.380Z,100817.56
2023-07-30T06:21:38.528Z,100816.63
2023-07-30T06:26:35.503Z,100771.28
2023-07-30T06:31:32.707Z,100813.16
2023-07-30T06:36:30.638Z,100809.22
2023-07-30T06:41:27.537Z,100802.38
2023-07-30T06:46:24.427Z,100777.75
2023-07-30T06:51:21.372Z,100799.19
2023-07-30T06:56:19.371Z,100798.91
2023-07-30T07:01:16.453Z,100781.06
2023-07-30T07:06:13.287Z,100789.63
2023-07-30T07:11:10.132Z,100771.44
2023-07-30T07:16:07.613Z,100766.13
2023-07-30T07:21:04.534Z,100772.69
2023-07-30T07:26:01.360Z,100750.25
2023-07-30T07:30:58.286Z,100766.03
2023-07-30T07:36:05.015Z,100719.44
2023-07-30T07:41:02.337Z,100755.97
2023-07-30T07:45:59.240Z,100729.25
2023-07-30T07:50:56.086Z,100753.34
2023-07-30T07:55:53.558Z,100751.88
2023-07-30T08:00:50.440Z,100729.03
2023-07-30T08:05:47.264Z,100706.13
2023-07-30T08:10:45.581Z,100742.59
2023-07-30T08:15:42.988Z,100726.38
2023-07-30T08:20:39.740Z,100737.69
2023-07-30T08:25:36.648Z,100714.44
2023-07-30T08:30:33.496Z,100730.47
2023-07-30T08:35:30.937Z,100727.38
2023-07-30T08:40:27.859Z,100717.38
2023-07-30T08:45:26.148Z,100712.34
2023-07-30T08:50:23.883Z,100713.69
2023-07-30T08:55:22.339Z,100711.13
2023-07-30T09:00:20.594Z,100705.22
2023-07-30T09:05:17.819Z,100695.50
2023-07-30T09:10:15.349Z,100709.03
2023-07-30T09:15:12.763Z,100699.88
2023-07-30T09:20:10.496Z,100690.22
2023-07-30T09:25:08.400Z,100663.34
2023-07-30T09:30:06.712Z,100649.63
2023-07-30T09:35:08.228Z,100676.53
2023-07-30T09:40:06.584Z,100660.75
2023-07-30T09:45:05.005Z,100598.03
2023-07-30T09:50:02.658Z,100658.69
2023-07-30T09:55:00.592Z,100646.38
2023-07-30T10:00:01.727Z,100628.47
2023-07-30T10:05:01.748Z,100643.50
2023-07-30T10:10:02.274Z,100628.25
2023-07-30T10:14:59.270Z,100619.72
2023-07-30T10:19:57.249Z,100606.69
2023-07-30T10:24:57.902Z,100629.44
2023-07-30T10:30:11.115Z,100603.59
2023-07-30T10:35:08.603Z,100595.75
2023-07-30T10:40:18.421Z,100599.81
2023-07-30T10:45:16.036Z,100567.25
2023-07-30T10:50:17.045Z,100559.75
2023-07-30T10:55:13.911Z,100590.75
2023-07-30T11:00:12.326Z,100578.16
2023-07-30T11:05:14.064Z,100576.97
2023-07-30T11:10:10.997Z,100575.28
2023-07-30T11:15:11.541Z,100562.69
2023-07-30T11:20:09.539Z,100540.47
2023-07-30T11:25:17.791Z,100501.91
2023-07-30T11:30:14.692Z,100554.97
2023-07-30T11:35:12.746Z,100499.34
2023-07-30T11:40:12.055Z,100540.22
2023-07-30T11:45:19.907Z,100505.19
2023-07-30T11:50:17.016Z,100538.88
2023-07-30T11:55:13.810Z,100522.47
2023-07-30T12:00:11.687Z,100511.00
2023-07-30T12:05:13.087Z,100501.97
2023-07-30T12:10:10.830Z,100462.16
2023-07-30T12:15:12.311Z,100497.63
2023-07-30T12:20:11.945Z,100467.16
2023-07-30T12:25:11.020Z,100459.50
2023-07-30T12:30:09.462Z,100475.69
2023-07-30T12:35:06.654Z,100454.59
2023-07-30T12:40:07.965Z,100467.59
2023-07-30T12:45:07.072Z,100457.72
2023-07-30T12:50:04.974Z,100455.84
2023-07-30T12:55:45.788Z,100364.63
2023-07-30T13:00:44.356Z,100435.78
2023-07-30T13:05:44.183Z,100434.13
2023-07-30T13:10:49.941Z,100427.03
2023-07-30T13:15:48.227Z,100372.09
2023-07-30T13:20:45.310Z,100406.16
2023-07-30T13:25:42.448Z,100410.25
2023-07-30T13:30:39.337Z,100407.53
2023-07-30T13:35:36.936Z,100395.22
2023-07-30T13:40:34.281Z,100401.53
2023-07-30T13:45:31.918Z,100398.53
2023-07-30T13:50:29.511Z,100375.41
2023-07-30T13:55:30.973Z,100370.75
2023-07-30T14:00:32.561Z,100389.13
2023-07-30T14:05:30.421Z,100313.59
2023-07-30T14:10:29.055Z,100355.88
2023-07-30T14:15:26.325Z,100370.47
2023-07-30T14:20:25.684Z,100363.06
2023-07-30T14:25:22.533Z,100363.34
2023-07-30T14:30:20.934Z,100343.31
2023-07-30T14:35:32.478Z,100353.47
2023-07-30T14:40:31.184Z,100329.56
2023-07-30T14:45:28.934Z,100338.03
2023-07-30T14:50:27.352Z,100322.66
2023-07-30T14:55:24.366Z,100287.72
2023-07-30T15:00:21.747Z,100308.31
2023-07-30T15:05:24.264Z,100317.63
2023-07-30T15:10:24.537Z,100308.28
2023-07-30T15:15:22.343Z,100286.06
2023-07-30T15:20:20.997Z,100273.38
2023-07-30T15:25:20.470Z,100286.56
2023-07-30T15:30:21.170Z,100282.41
2023-07-30T15:35:18.454Z,100284.59
2023-07-30T15:40:16.045Z,100265.88
2023-07-30T15:45:13.250Z,100284.81
2023-07-30T15:50:10.492Z,100274.88
2023-07-30T15:55:11.311Z,100225.94
2023-07-30T16:00:15.508Z,100254.47
2023-07-30T16:05:13.357Z,100270.13
2023-07-30T16:10:11.124Z,100269.28
2023-07-30T16:15:08.888Z,100249.19
2023-07-30T16:20:10.100Z,100245.31
2023-07-30T16:25:09.343Z,100251.56
2023-07-30T16:30:07.542Z,100257.00
2023-07-30T16:35:06.609Z,100231.63
2023-07-30T16:40:06.666Z,100252.22
2023-07-30T16:45:05.304Z,100249.66
2023-07-30T16:50:02.517Z,100242.38
2023-07-30T16:55:00.235Z,100246.09
2023-07-30T16:59:58.191Z,100247.59
2023-07-30T17:04:56.260Z,100244.41
2023-07-30T17:09:53.296Z,100243.94
2023-07-30T17:14:50.669Z,100243.94
2023-07-30T17:19:49.199Z,100201.53
2023-07-30T17:24:46.211Z,100252.66
2023-07-30T17:29:43.225Z,100247.63
2023-07-30T17:34:40.498Z,100242.13
2023-07-30T17:39:41.537Z,100235.00
2023-07-30T17:44:40.944Z,100244.81
2023-07-30T17:49:38.270Z,100252.00
2023-07-30T17:54:35.313Z,100267.72
2023-07-30T17:59:32.932Z,100230.84
2023-07-30T18:04:30.612Z,100250.53
2023-07-30T18:09:28.347Z,100264.88
2023-07-30T18:14:25.268Z,100285.13
2023-07-30T18:19:23.024Z,100248.50
2023-07-30T18:24:20.297Z,100292.50
2023-07-30T18:29:18.162Z,100253.97
2023-07-30T18:34:15.247Z,100301.31
2023-07-30T18:39:13.447Z,100303.97
2023-07-30T18:44:11.558Z,100296.59
2023-07-30T18:49:09.298Z,100301.53
2023-07-30T18:54:08.394Z,100298.84
2023-07-30T18:59:05.888Z,100263.69
2023-07-30T19:04:03.393Z,100305.94
2023-07-30T19:09:00.282Z,100258.84
2023-07-30T19:13:57.208Z,100298.31
2023-07-30T19:18:54.979Z,100297.81
2023-07-30T19:23:51.948Z,100303.81
2023-07-30T19:28:49.296Z,100308.75
2023-07-30T19:33:46.265Z,100289.81
2023-07-30T19:38:44.135Z,100296.13
2023-07-30T19:43:41.269Z,100310.16
2023-07-30T19:48:40.981Z,100304.84
2023-07-30T19:53:38.269Z,100307.84
2023-07-30T19:58:35.854Z,100301.69
2023-07-30T20:03:33.007Z,100307.56
2023-07-30T20:08:30.213Z,100299.50
2023-07-30T20:13:27.106Z,100309.41
2023-07-30T20:18:25.458Z,100314.88
2023-07-30T20:23:24.847Z,100339.94
2023-07-30T20:28:22.287Z,100331.59
2023-07-30T20:33:19.182Z,100333.09
2023-07-30T20:38:16.908Z,100311.22
2023-07-30T20:43:14.269Z,100349.22
2023-07-30T20:48:11.233Z,100323.00
2023-07-30T20:53:08.085Z,100343.47
2023-07-30T20:58:05.633Z,100335.59
2023-07-30T21:03:02.631Z,100322.44
2023-07-30T21:08:00.278Z,100331.88
2023-07-30T21:12:57.132Z,100312.91
2023-07-30T21:17:54.947Z,100322.75
2023-07-30T21:22:52.267Z,100320.66
2023-07-30T21:27:49.243Z,100309.06
2023-07-30T21:32:46.062Z,100293.47
2023-07-30T21:37:43.829Z,100278.94
2023-07-30T21:42:40.589Z,100305.38
2023-07-30T21:47:38.253Z,100299.38
2023-07-30T21:52:37.906Z,100288.94
2023-07-30T21:57:35.877Z,100290.38
2023-07-30T22:02:32.788Z,100283.75
2023-07-30T22:07:30.256Z,100280.84
2023-07-30T22:12:27.097Z,100294.59
2023-07-30T22:17:24.958Z,100285.44
2023-07-30T22:22:21.807Z,100285.63
2023-07-30T22:27:19.379Z,100322.53
2023-07-30T22:32:16.278Z,100337.94
2023-07-30T22:37:13.859Z,100389.16
2023-07-30T22:42:11.266Z,100347.09
2023-07-30T22:47:08.204Z,100430.78
2023-07-30T22:52:05.586Z,100414.13
2023-07-30T22:57:04.612Z,100430.97
2023-07-30T23:02:03.001Z,100424.97
2023-07-30T23:07:00.229Z,100445.34
2023-07-30T23:11:57.839Z,100410.41
2023-07-30T23:16:55.433Z,100400.81
2023-07-30T23:21:52.429Z,100449.34
2023-07-30T23:26:49.332Z,100417.06
2023-07-30T23:31:46.270Z,100434.94
2023-07-30T23:36:43.853Z,100430.56
2023-07-30T23:41:40.727Z,100438.09
2023-07-30T23:46:38.524Z,100448.88
2023-07-30T23:51:35.686Z,100444.47
2023-07-30T23:56:33.162Z,100453.63
